Time;durP1;ratioP1;P1;durP2;ratioP2;P2;SDS_P1;SDS_P2;PMS_P1;PMS_P2;Temp;Humidity;BMP_temperature;BMP_pressure;BME280_temperature;BME280_humidity;BME280_pressure;Samples;Min_cycle;Max_cycle;Signal;HPM_P1;HPM_P2
2022/11/22 00:00:19;;;;;;;52.45;22.00;;;3.20;99.90;;;;;;5046308;28;20049;-77
2022/11/22 00:02:45;;;;;;;49.10;21.40;;;3.10;99.90;;;;;;5046281;28;20549;-77
2022/11/22 00:05:11;;;;;;;50.60;21.45;;;3.10;99.90;;;;;;5046168;28;20171;-77
2022/11/22 00:07:37;;;;;;;52.17;22.50;;;3.10;99.90;;;;;;5036141;28;20052;-80
2022/11/22 00:10:08;;;;;;;50.50;21.55;;;3.10;99.90;;;;;;5043450;28;20056;-83
2022/11/22 00:12:34;;;;;;;54.13;22.08;;;3.10;99.90;;;;;;5049029;28;20074;-77
2022/11/22 00:15:00;;;;;;;54.92;21.00;;;3.10;99.90;;;;;;5045686;28;20047;-77
2022/11/22 00:17:25;;;;;;;49.05;22.90;;;3.10;99.90;;;;;;5050841;28;20372;-77
2022/11/22 00:19:51;;;;;;;51.10;21.92;;;3.10;99.90;;;;;;5032007;28;20040;-78
2022/11/22 00:22:17;;;;;;;49.92;20.95;;;3.10;99.90;;;;;;5028729;28;20065;-81
2022/11/22 00:24:45;;;;;;;48.67;20.70;;;3.10;99.90;;;;;;5051106;28;20053;-79
2022/11/22 00:27:11;;;;;;;48.28;21.00;;;3.10;99.90;;;;;;5034385;28;20048;-77
2022/11/22 00:29:36;;;;;;;54.20;22.20;;;3.10;99.90;;;;;;5049390;28;20052;-77
2022/11/22 00:32:02;;;;;;;58.60;22.15;;;3.10;99.90;;;;;;5047017;28;20067;-78
2022/11/22 00:34:28;;;;;;;51.88;22.48;;;3.10;99.90;;;;;;5047647;28;20136;-80
2022/11/22 00:36:53;;;;;;;55.70;23.40;;;3.10;99.90;;;;;;5048058;28;20124;-77
2022/11/22 00:39:19;;;;;;;51.03;22.30;;;3.10;99.90;;;;;;5058356;28;20113;-78
2022/11/22 00:41:45;;;;;;;50.75;22.52;;;3.10;99.90;;;;;;5025057;28;20057;-77
2022/11/22 00:44:10;;;;;;;48.63;22.92;;;3.10;99.90;;;;;;5044599;28;20127;-83
2022/11/22 00:46:36;;;;;;;59.33;23.02;;;3.10;99.90;;;;;;5035014;28;20037;-81
2022/11/22 00:49:01;;;;;;;57.50;23.15;;;3.10;99.90;;;;;;5053557;28;20048;-77
2022/11/22 00:51:27;;;;;;;55.00;23.20;;;3.10;99.90;;;;;;5040558;28;20072;-77
2022/11/22 00:53:53;;;;;;;53.17;23.17;;;3.10;99.90;;;;;;5034217;28;20052;-81
2022/11/22 00:56:18;;;;;;;56.78;23.45;;;3.00;99.90;;;;;;5050784;28;20123;-77
2022/11/22 00:58:44;;;;;;;54.38;22.63;;;3.00;99.90;;;;;;5010966;28;20096;-77
2022/11/22 01:01:09;;;;;;;55.08;23.75;;;3.00;99.90;;;;;;5049228;28;20102;-83
2022/11/22 01:03:35;;;;;;;56.17;23.30;;;3.10;99.90;;;;;;5033676;28;20049;-77
2022/11/22 01:06:01;;;;;;;54.42;22.50;;;3.00;99.90;;;;;;5011807;28;20037;-78
2022/11/22 01:08:26;;;;;;;56.55;22.70;;;3.00;99.90;;;;;;5042722;28;20053;-77
2022/11/22 01:10:57;;;;;;;56.72;22.10;;;3.10;99.90;;;;;;5045566;28;20049;-79
2022/11/22 01:13:23;;;;;;;64.90;24.52;;;3.20;99.90;;;;;;5017103;28;20053;-79
2022/11/22 01:15:49;;;;;;;57.50;23.23;;;3.10;99.90;;;;;;5038350;28;20045;-78
2022/11/22 01:18:15;;;;;;;54.90;22.77;;;3.00;99.90;;;;;;5051649;28;20528;-77
2022/11/22 01:20:40;;;;;;;57.30;23.70;;;3.00;99.90;;;;;;5033453;28;20049;-78
2022/11/22 01:23:06;;;;;;;56.83;22.77;;;3.10;99.90;;;;;;5035692;28;20547;-77
2022/11/22 01:25:32;;;;;;;56.58;22.38;;;3.10;99.90;;;;;;5049786;28;20049;-79
2022/11/22 01:27:57;;;;;;;62.95;24.50;;;3.10;99.90;;;;;;5053685;28;20091;-78
2022/11/22 01:30:23;;;;;;;60.15;22.20;;;3.10;99.90;;;;;;5061868;28;20048;-79
2022/11/22 01:32:49;;;;;;;64.82;23.75;;;3.10;99.90;;;;;;5050335;28;20131;-77
2022/11/22 01:35:14;;;;;;;63.58;23.50;;;3.10;99.90;;;;;;5017718;28;20060;-84
2022/11/22 01:37:40;;;;;;;52.55;22.98;;;3.10;99.90;;;;;;5052732;28;20049;-78
2022/11/22 01:40:06;;;;;;;53.45;21.95;;;3.10;99.90;;;;;;5059132;28;20055;-77
2022/11/22 01:42:42;;;;;;;65.53;24.00;;;3.10;99.90;;;;;;5048722;28;20049;-82
2022/11/22 01:45:29;;;;;;;58.75;23.83;;;3.20;99.90;;;;;;5038932;28;20514;-78
2022/11/22 01:48:05;;;;;;;59.35;23.60;;;3.20;99.90;;;;;;5040584;28;20070;-78
2022/11/22 01:50:35;;;;;;;64.05;23.55;;;3.20;99.90;;;;;;5040147;28;20060;-78
2022/11/22 01:53:05;;;;;;;57.90;23.02;;;3.10;99.90;;;;;;5040816;28;20036;-78
2022/11/22 01:55:33;;;;;;;57.78;23.13;;;3.20;99.90;;;;;;5055134;28;20074;-77
2022/11/22 01:58:02;;;;;;;62.10;24.73;;;3.20;99.90;;;;;;5049450;28;20498;-80
2022/11/22 02:00:28;;;;;;;62.10;24.10;;;3.20;99.90;;;;;;5049627;28;20061;-77
2022/11/22 02:03:00;;;;;;;64.38;24.15;;;3.20;99.90;;;;;;5048521;28;20068;-78
2022/11/22 02:05:31;;;;;;;62.75;23.33;;;3.30;99.90;;;;;;5035382;28;20102;-77
2022/11/22 02:08:11;;;;;;;58.03;23.30;;;3.20;99.90;;;;;;5048393;28;20042;-79
2022/11/22 02:10:42;;;;;;;71.05;25.10;;;3.20;99.90;;;;;;5049495;28;20071;-77
2022/11/22 02:13:09;;;;;;;65.88;24.63;;;3.20;99.90;;;;;;5047365;28;20063;-78
2022/11/22 02:15:35;;;;;;;73.10;24.70;;;3.20;99.90;;;;;;5040344;28;20040;-78
2022/11/22 02:18:00;;;;;;;61.33;24.65;;;3.30;99.90;;;;;;5033281;28;20049;-78
2022/11/22 02:20:26;;;;;;;73.38;26.52;;;3.20;99.90;;;;;;5028507;28;20509;-77
2022/11/22 02:23:05;;;;;;;62.70;23.85;;;3.20;99.90;;;;;;5049490;28;20053;-77
2022/11/22 02:25:40;;;;;;;62.45;23.45;;;3.20;99.90;;;;;;5042524;28;20053;-80
2022/11/22 02:28:12;;;;;;;72.00;24.50;;;3.40;99.90;;;;;;5053276;28;20057;-77
2022/11/22 02:30:39;;;;;;;71.70;25.63;;;3.30;99.90;;;;;;5049469;28;20040;-78
2022/11/22 02:33:06;;;;;;;67.50;25.17;;;3.30;99.90;;;;;;5060128;28;20051;-78
2022/11/22 02:35:32;;;;;;;63.55;24.60;;;3.30;99.90;;;;;;5028111;28;20107;-79
2022/11/22 02:38:30;;;;;;;69.75;24.83;;;3.30;99.90;;;;;;5048240;28;20140;-78
2022/11/22 02:40:58;;;;;;;65.75;24.25;;;3.30;99.90;;;;;;5046105;28;20490;-78
2022/11/22 02:43:37;;;;;;;64.88;25.48;;;3.30;99.90;;;;;;5047134;28;20053;-84
2022/11/22 02:46:05;;;;;;;67.45;25.20;;;3.40;99.90;;;;;;5046075;28;20101;-82
2022/11/22 02:48:30;;;;;;;75.45;25.58;;;3.40;99.90;;;;;;5053256;28;20506;-77
2022/11/22 02:50:56;;;;;;;58.53;24.17;;;3.30;99.90;;;;;;5037161;28;20068;-79
2022/11/22 02:53:22;;;;;;;72.00;26.20;;;3.30;99.90;;;;;;5047672;28;20077;-79
2022/11/22 02:55:47;;;;;;;71.68;25.70;;;3.30;99.90;;;;;;5036107;28;20574;-78
2022/11/22 02:58:13;;;;;;;84.30;26.42;;;3.30;99.90;;;;;;5048456;28;20044;-82
2022/11/22 03:00:39;;;;;;;70.95;25.40;;;3.30;99.90;;;;;;5027573;28;20037;-78
2022/11/22 03:03:05;;;;;;;74.00;26.55;;;3.30;99.90;;;;;;5046495;28;20076;-78
2022/11/22 03:05:30;;;;;;;69.28;26.85;;;3.30;99.90;;;;;;5064915;28;20048;-77
2022/11/22 03:07:56;;;;;;;79.22;26.83;;;3.40;99.90;;;;;;5054154;28;20044;-78
2022/11/22 03:10:22;;;;;;;78.72;26.63;;;3.40;99.90;;;;;;5014712;28;20153;-77
2022/11/22 03:12:48;;;;;;;77.90;26.50;;;3.40;99.90;;;;;;5046662;28;20446;-78
2022/11/22 03:15:13;;;;;;;70.82;25.63;;;3.30;99.90;;;;;;5048641;28;20049;-77
2022/11/22 03:17:40;;;;;;;69.47;26.02;;;3.40;99.90;;;;;;5049236;28;20053;-78
2022/11/22 03:20:06;;;;;;;73.25;25.60;;;3.40;99.90;;;;;;5050192;28;20057;-77
2022/11/22 03:22:33;;;;;;;72.80;27.15;;;3.40;99.90;;;;;;5026765;28;20041;-78
2022/11/22 03:24:59;;;;;;;72.10;26.35;;;3.50;99.90;;;;;;5030287;28;20045;-78
2022/11/22 03:27:24;;;;;;;71.05;26.95;;;3.40;99.90;;;;;;5047843;28;20067;-77
2022/11/22 03:29:50;;;;;;;71.35;25.83;;;3.50;99.90;;;;;;5030914;28;20041;-78
2022/11/22 03:32:15;;;;;;;71.93;26.77;;;3.50;99.90;;;;;;5039453;28;20128;-77
2022/11/22 03:34:41;;;;;;;79.25;26.50;;;3.50;99.90;;;;;;5042318;28;20080;-78
2022/11/22 03:37:07;;;;;;;74.00;26.25;;;3.50;99.90;;;;;;5041074;28;20079;-79
2022/11/22 03:39:32;;;;;;;77.22;26.27;;;3.50;99.90;;;;;;5018315;28;20600;-81
2022/11/22 03:41:58;;;;;;;76.30;26.73;;;3.50;99.90;;;;;;5033614;28;20052;-79
2022/11/22 03:44:24;;;;;;;75.50;26.15;;;3.50;99.90;;;;;;5033813;28;20056;-78
2022/11/22 03:46:49;;;;;;;74.78;26.38;;;3.70;99.90;;;;;;5050718;28;20041;-78
2022/11/22 03:49:15;;;;;;;83.88;28.15;;;3.50;99.90;;;;;;5040851;28;20060;-78
2022/11/22 03:51:41;;;;;;;76.10;26.35;;;3.50;99.90;;;;;;5036454;28;20049;-78
2022/11/22 03:54:06;;;;;;;75.72;26.35;;;3.50;99.90;;;;;;5059329;28;20040;-78
2022/11/22 03:56:32;;;;;;;85.07;26.95;;;3.50;99.90;;;;;;5031244;28;20049;-80
2022/11/22 03:58:57;;;;;;;83.68;27.70;;;3.50;99.90;;;;;;5035050;28;20064;-78
2022/11/22 04:01:23;;;;;;;78.95;26.95;;;3.60;99.90;;;;;;5060674;28;20041;-78
2022/11/22 04:03:49;;;;;;;70.90;25.38;;;3.60;99.90;;;;;;5049148;28;20049;-77
2022/11/22 04:06:15;;;;;;;69.68;26.45;;;3.60;99.90;;;;;;5056741;28;20088;-81
2022/11/22 04:08:40;;;;;;;75.38;26.33;;;3.60;99.90;;;;;;5058514;28;20072;-79
2022/11/22 04:11:06;;;;;;;76.65;27.75;;;3.60;99.90;;;;;;5075957;28;20485;-78
2022/11/22 04:16:15;;;;;;;77.15;26.23;;;3.70;99.90;;;;;;5056058;28;20052;-77
2022/11/22 04:18:41;;;;;;;71.22;26.60;;;3.70;99.90;;;;;;5055309;28;20041;-79
2022/11/22 04:26:36;;;;;;;76.38;26.77;;;3.70;99.90;;;;;;5051255;28;20111;-78
2022/11/22 04:29:02;;;;;;;68.50;25.90;;;3.80;99.90;;;;;;5036267;28;20168;-78
2022/11/22 04:34:15;;;;;;;74.40;28.00;;;3.80;99.90;;;;;;5061565;28;20199;-78
2022/11/22 04:36:40;;;;;;;73.88;27.58;;;3.80;99.90;;;;;;5064905;28;20040;-83
2022/11/22 04:39:06;;;;;;;66.22;26.33;;;3.80;99.90;;;;;;5060337;28;20041;-78
2022/11/22 04:41:32;;;;;;;76.18;27.27;;;3.80;99.90;;;;;;5059544;28;20044;-78
2022/11/22 04:46:42;;;;;;;66.85;26.17;;;3.90;99.90;;;;;;5045078;28;20799;-85
2022/11/22 04:49:07;;;;;;;62.25;25.13;;;3.90;99.90;;;;;;5051772;28;20053;-78
2022/11/22 04:54:17;;;;;;;69.28;25.40;;;4.00;99.90;;;;;;5045419;28;20067;-78
2022/11/22 04:56:43;;;;;;;64.35;25.95;;;3.90;99.90;;;;;;5068007;28;20086;-87
2022/11/22 04:59:09;;;;;;;60.85;26.08;;;4.00;99.90;;;;;;5053995;28;20116;-78
2022/11/22 05:01:34;;;;;;;60.00;25.67;;;4.00;99.90;;;;;;5053426;28;20059;-78
2022/11/22 05:04:00;;;;;;;58.67;26.73;;;4.00;99.90;;;;;;5051141;28;20053;-77
2022/11/22 05:06:25;;;;;;;73.70;26.45;;;4.00;99.90;;;;;;5051790;28;20045;-78
2022/11/22 05:08:51;;;;;;;75.43;28.58;;;4.20;99.90;;;;;;5058623;28;20095;-78
2022/11/22 05:11:17;;;;;;;57.28;25.77;;;4.10;99.90;;;;;;5035588;28;20033;-80
2022/11/22 05:13:43;;;;;;;91.35;28.55;;;4.20;99.90;;;;;;5056090;28;20043;-77
2022/11/22 05:16:11;;;;;;;67.10;25.92;;;4.10;99.90;;;;;;5051641;28;20053;-77
2022/11/22 05:18:37;;;;;;;69.10;26.70;;;4.20;99.90;;;;;;5049768;28;20482;-84
2022/11/22 05:21:12;;;;;;;66.82;26.10;;;4.20;99.90;;;;;;5049973;28;20052;-81
2022/11/22 05:23:53;;;;;;;74.20;27.52;;;4.20;99.90;;;;;;5051062;28;20045;-78
2022/11/22 05:26:28;;;;;;;60.05;25.77;;;4.20;99.90;;;;;;5049610;28;20138;-77
2022/11/22 05:28:53;;;;;;;64.35;26.00;;;4.20;99.90;;;;;;5050976;28;20056;-80
2022/11/22 05:31:22;;;;;;;64.50;26.63;;;4.30;99.90;;;;;;5072813;28;20048;-79
2022/11/22 05:33:50;;;;;;;61.92;25.77;;;4.30;99.90;;;;;;5049289;28;20139;-84
2022/11/22 05:36:16;;;;;;;72.70;27.20;;;4.30;99.90;;;;;;5047854;28;20136;-78
2022/11/22 05:38:41;;;;;;;67.93;26.65;;;4.30;99.90;;;;;;5062987;28;20123;-78
2022/11/22 05:41:10;;;;;;;63.30;24.67;;;4.30;99.90;;;;;;5050783;28;20052;-82
2022/11/22 05:43:36;;;;;;;62.58;25.15;;;4.30;99.90;;;;;;5038835;28;20453;-78
2022/11/22 05:46:07;;;;;;;71.50;26.10;;;4.30;99.90;;;;;;5046308;28;20072;-79
2022/11/22 05:48:33;;;;;;;59.92;25.95;;;4.30;99.90;;;;;;5050996;28;20065;-82
2022/11/22 05:51:03;;;;;;;61.67;26.05;;;4.40;99.90;;;;;;5028728;28;20045;-79
2022/11/22 05:53:29;;;;;;;58.90;25.23;;;4.30;99.90;;;;;;5032729;28;20103;-78
2022/11/22 05:55:55;;;;;;;58.88;24.92;;;4.30;99.90;;;;;;5052824;28;20430;-78
2022/11/22 05:58:22;;;;;;;62.95;25.20;;;4.30;99.90;;;;;;5050688;28;20461;-77
2022/11/22 06:00:48;;;;;;;56.92;24.70;;;4.40;99.90;;;;;;5046551;28;20060;-78
2022/11/22 06:03:14;;;;;;;56.40;24.40;;;4.40;99.90;;;;;;5049535;28;20053;-81
2022/11/22 06:05:39;;;;;;;74.15;25.90;;;4.40;99.90;;;;;;5031484;28;20754;-77
2022/11/22 06:08:05;;;;;;;68.88;25.02;;;4.40;99.90;;;;;;5046638;28;20118;-78
2022/11/22 06:10:33;;;;;;;68.22;25.80;;;4.40;99.90;;;;;;5043677;28;20172;-77
2022/11/22 06:12:58;;;;;;;66.72;24.30;;;4.40;99.90;;;;;;5048431;28;20099;-80
2022/11/22 06:15:24;;;;;;;58.67;24.38;;;4.40;99.90;;;;;;5028262;28;20479;-78
2022/11/22 06:17:50;;;;;;;70.35;25.92;;;4.40;99.90;;;;;;5032928;28;20137;-79
2022/11/22 06:20:15;;;;;;;57.65;24.33;;;4.30;99.90;;;;;;5044132;28;20063;-77
2022/11/22 06:22:41;;;;;;;63.70;24.58;;;4.40;99.90;;;;;;5033099;28;20056;-80
2022/11/22 06:25:07;;;;;;;60.35;24.02;;;4.40;99.90;;;;;;5034111;28;20493;-77
2022/11/22 06:27:33;;;;;;;69.70;25.38;;;4.40;99.90;;;;;;5055182;28;20052;-82
2022/11/22 06:29:59;;;;;;;62.55;22.73;;;4.40;99.90;;;;;;5050929;28;20051;-79
2022/11/22 06:32:24;;;;;;;56.25;23.25;;;4.40;99.90;;;;;;5044193;28;20044;-78
2022/11/22 06:34:50;;;;;;;70.70;25.00;;;4.40;99.90;;;;;;5046173;28;20486;-80
2022/11/22 06:37:16;;;;;;;71.93;25.17;;;4.50;99.90;;;;;;5028107;28;20136;-79
2022/11/22 06:39:41;;;;;;;67.10;24.80;;;4.50;99.90;;;;;;5071189;28;20158;-80
2022/11/22 06:42:07;;;;;;;58.60;22.67;;;4.50;99.90;;;;;;5036284;28;20072;-81
2022/11/22 06:44:33;;;;;;;62.13;23.48;;;4.50;99.90;;;;;;5039002;28;20391;-78
2022/11/22 06:46:59;;;;;;;62.60;23.45;;;4.60;99.90;;;;;;5048277;28;20041;-84
2022/11/22 06:49:24;;;;;;;52.67;21.92;;;4.60;99.90;;;;;;5044255;28;20084;-81
2022/11/22 06:51:50;;;;;;;55.88;22.65;;;4.60;99.90;;;;;;5049459;28;20076;-77
2022/11/22 06:54:16;;;;;;;56.90;22.55;;;4.70;99.90;;;;;;5045835;28;20074;-77
2022/11/22 06:56:42;;;;;;;60.20;23.00;;;4.70;99.90;;;;;;5029497;28;20056;-77
2022/11/22 06:59:08;;;;;;;55.13;22.23;;;4.70;99.90;;;;;;5027775;28;20045;-77
2022/11/22 07:01:35;;;;;;;49.50;19.92;;;4.80;99.90;;;;;;5042795;28;20056;-78
2022/11/22 07:04:01;;;;;;;53.13;20.27;;;4.80;99.90;;;;;;5046479;28;20094;-83
2022/11/22 07:06:29;;;;;;;51.42;20.13;;;4.80;99.90;;;;;;5044545;28;20056;-78
2022/11/22 07:08:55;;;;;;;53.72;20.02;;;4.90;99.90;;;;;;5045231;28;20485;-78
2022/11/22 07:11:27;;;;;;;45.38;19.13;;;4.90;99.90;;;;;;5060357;28;20036;-78
2022/11/22 07:13:54;;;;;;;53.83;20.67;;;4.90;99.90;;;;;;5031843;28;20096;-77
2022/11/22 07:16:21;;;;;;;63.72;20.75;;;4.90;99.90;;;;;;5047418;28;20048;-79
2022/11/22 07:18:47;;;;;;;52.45;20.75;;;4.80;99.90;;;;;;5043839;28;20140;-78
2022/11/22 07:21:18;;;;;;;52.05;20.65;;;4.80;99.90;;;;;;5037246;28;20049;-82
2022/11/22 07:23:46;;;;;;;49.88;19.75;;;4.80;99.90;;;;;;5029840;28;20049;-78
2022/11/22 07:26:13;;;;;;;59.72;20.88;;;4.90;99.90;;;;;;5040212;28;20525;-79
2022/11/22 07:28:38;;;;;;;56.95;20.30;;;4.80;99.90;;;;;;5034591;28;20546;-79
2022/11/22 07:31:06;;;;;;;51.53;19.38;;;4.90;99.90;;;;;;5014794;28;20132;-84
2022/11/22 07:33:33;;;;;;;49.90;17.98;;;4.90;99.90;;;;;;5029762;28;20099;-78
2022/11/22 07:36:09;;;;;;;45.22;18.10;;;5.00;99.90;;;;;;5038418;28;20033;-78
2022/11/22 07:38:35;;;;;;;43.10;17.77;;;5.00;99.90;;;;;;5039502;28;20053;-79
2022/11/22 07:41:01;;;;;;;40.08;16.83;;;5.10;99.90;;;;;;5033549;28;20465;-78
2022/11/22 07:43:27;;;;;;;44.35;16.48;;;5.00;99.90;;;;;;5029766;28;20077;-78
2022/11/22 07:45:57;;;;;;;40.63;15.25;;;5.00;99.90;;;;;;5031072;28;20037;-81
2022/11/22 07:48:22;;;;;;;46.00;15.13;;;5.10;99.90;;;;;;5046549;28;20115;-79
2022/11/22 07:50:48;;;;;;;37.13;13.88;;;5.20;99.90;;;;;;5037069;28;20077;-80
2022/11/22 07:53:14;;;;;;;33.67;14.13;;;5.20;99.90;;;;;;5014927;28;20542;-79
2022/11/22 07:55:39;;;;;;;40.25;13.75;;;5.20;99.90;;;;;;5047190;28;20216;-79
2022/11/22 07:58:05;;;;;;;30.48;11.98;;;5.30;99.90;;;;;;5033348;28;20061;-79
2022/11/22 08:00:30;;;;;;;38.63;13.18;;;5.30;99.90;;;;;;5045065;28;20045;-78
2022/11/22 08:02:57;;;;;;;29.98;11.45;;;5.30;99.90;;;;;;5060277;28;20069;-78
2022/11/22 08:05:23;;;;;;;31.30;11.65;;;5.40;99.90;;;;;;5043267;28;20053;-81
2022/11/22 08:07:50;;;;;;;27.35;11.25;;;5.40;99.90;;;;;;5048475;28;20047;-78
2022/11/22 08:10:16;;;;;;;29.73;11.23;;;5.30;99.90;;;;;;5037786;28;20041;-79
2022/11/22 08:12:43;;;;;;;32.10;11.75;;;5.40;99.90;;;;;;5041904;28;20048;-79
2022/11/22 08:15:10;;;;;;;29.50;10.25;;;5.30;99.90;;;;;;5037180;28;20525;-85
2022/11/22 08:17:37;;;;;;;45.25;11.05;;;5.30;99.90;;;;;;5044686;28;20099;-79
2022/11/22 08:20:04;;;;;;;25.23;9.38;;;5.30;99.90;;;;;;5045945;28;20495;-78
2022/11/22 08:22:30;;;;;;;32.63;9.90;;;5.20;99.90;;;;;;5057099;28;20509;-78
2022/11/22 08:24:56;;;;;;;29.77;9.60;;;5.20;99.90;;;;;;5045296;28;20057;-78
2022/11/22 08:27:22;;;;;;;22.55;9.05;;;5.10;99.90;;;;;;5045682;28;20517;-79
2022/11/22 08:29:48;;;;;;;19.63;8.07;;;5.10;99.90;;;;;;5043395;28;20087;-79
2022/11/22 08:32:13;;;;;;;22.77;7.50;;;5.00;99.90;;;;;;5060091;28;20068;-80
2022/11/22 08:34:39;;;;;;;23.23;8.02;;;5.00;99.90;;;;;;5028123;28;20382;-80
2022/11/22 08:37:05;;;;;;;29.80;8.30;;;5.00;99.90;;;;;;5050418;28;20063;-78
2022/11/22 08:39:31;;;;;;;26.90;9.70;;;4.90;99.90;;;;;;5020827;28;20145;-78
2022/11/22 08:41:57;;;;;;;32.03;8.50;;;4.90;99.90;;;;;;5047950;28;20453;-78
2022/11/22 08:44:22;;;;;;;24.15;7.88;;;5.00;99.90;;;;;;5048037;28;20044;-79
2022/11/22 08:46:48;;;;;;;25.67;8.10;;;5.00;99.90;;;;;;5047316;28;20086;-78
2022/11/22 08:49:14;;;;;;;27.10;7.78;;;5.00;99.90;;;;;;5042267;28;20110;-83
2022/11/22 08:51:43;;;;;;;29.05;7.30;;;5.10;99.90;;;;;;5050140;28;20093;-79
2022/11/22 08:54:13;;;;;;;27.23;8.20;;;5.10;99.90;;;;;;5035258;28;20049;-79
2022/11/22 08:56:39;;;;;;;30.55;6.95;;;5.20;99.90;;;;;;5067812;28;20049;-81
2022/11/22 08:59:05;;;;;;;26.17;6.50;;;5.20;99.90;;;;;;5048402;28;20045;-79
2022/11/22 09:01:31;;;;;;;23.02;6.03;;;5.10;99.90;;;;;;5034369;28;20403;-78
2022/11/22 09:03:57;;;;;;;20.55;6.30;;;5.20;99.90;;;;;;5037115;28;20128;-78
2022/11/22 09:06:22;;;;;;;27.30;5.80;;;5.10;99.90;;;;;;5040798;28;20060;-78
2022/11/22 09:08:48;;;;;;;22.15;5.38;;;5.10;99.90;;;;;;5035186;28;20053;-79
2022/11/22 09:11:16;;;;;;;27.23;5.00;;;5.10;99.90;;;;;;5033040;28;20053;-79
2022/11/22 09:13:41;;;;;;;19.45;4.93;;;5.00;99.90;;;;;;5059673;28;20060;-79
2022/11/22 09:16:10;;;;;;;16.52;4.18;;;5.00;99.90;;;;;;5040786;28;20050;-82
2022/11/22 09:18:36;;;;;;;15.30;4.05;;;5.00;99.90;;;;;;5060563;28;20053;-79
2022/11/22 09:21:08;;;;;;;21.65;4.45;;;5.00;99.90;;;;;;5031618;28;20061;-80
2022/11/22 09:23:35;;;;;;;18.58;4.57;;;5.10;99.90;;;;;;5038375;28;20053;-79
2022/11/22 09:26:06;;;;;;;17.50;4.90;;;5.20;99.90;;;;;;5030510;28;20067;-78
2022/11/22 09:28:32;;;;;;;16.85;4.45;;;5.40;99.90;;;;;;5037949;28;20111;-79
2022/11/22 09:31:03;;;;;;;12.68;3.63;;;5.60;99.90;;;;;;5039708;28;20053;-82
2022/11/22 09:33:30;;;;;;;19.25;3.90;;;5.60;99.90;;;;;;5032503;28;20459;-80
2022/11/22 09:36:08;;;;;;;16.33;3.83;;;5.70;99.90;;;;;;5046383;28;20124;-78
2022/11/22 09:38:35;;;;;;;13.65;4.20;;;5.80;99.90;;;;;;5032647;28;20482;-79
2022/11/22 09:41:16;;;;;;;16.65;4.15;;;5.90;99.90;;;;;;5045004;28;20124;-78
2022/11/22 09:43:44;;;;;;;19.38;3.92;;;5.90;99.90;;;;;;5044334;28;20049;-80
2022/11/22 09:46:22;;;;;;;16.33;3.60;;;6.00;99.90;;;;;;5066562;28;20053;-79
2022/11/22 09:49:37;;;;;;;13.10;3.67;;;6.00;99.90;;;;;;5046690;28;20094;-80
2022/11/22 09:52:12;;;;;;;19.48;5.05;;;6.00;99.90;;;;;;5041625;28;20084;-86
2022/11/22 09:54:50;;;;;;;11.98;4.30;;;6.10;99.90;;;;;;5057814;28;20048;-77
2022/11/22 09:57:22;;;;;;;16.88;4.00;;;6.10;99.90;;;;;;5028434;28;20053;-78
2022/11/22 10:00:00;;;;;;;13.43;3.35;;;6.20;99.90;;;;;;5042780;28;20049;-78
2022/11/22 10:02:36;;;;;;;19.30;4.03;;;6.20;99.90;;;;;;5034433;28;20122;-78
2022/11/22 10:05:12;;;;;;;16.67;4.03;;;6.20;99.90;;;;;;5049044;28;20037;-81
2022/11/22 10:07:49;;;;;;;14.43;3.42;;;6.30;99.90;;;;;;5035407;28;20052;-84
2022/11/22 10:10:24;;;;;;;14.32;3.30;;;6.30;99.90;;;;;;5054279;28;20080;-81
2022/11/22 10:12:58;;;;;;;13.93;3.97;;;6.40;99.90;;;;;;5048251;28;20085;-81
2022/11/22 10:15:38;;;;;;;12.27;3.17;;;6.40;99.90;;;;;;5036874;28;20438;-83
2022/11/22 10:18:16;;;;;;;12.93;3.60;;;6.40;99.90;;;;;;5063456;28;20053;-81
2022/11/22 10:20:43;;;;;;;12.43;3.00;;;6.40;99.90;;;;;;5016958;28;20045;-84
2022/11/22 10:23:21;;;;;;;11.68;2.97;;;6.40;99.90;;;;;;5038478;28;20072;-81
2022/11/22 10:26:10;;;;;;;13.20;3.35;;;6.40;99.90;;;;;;5048754;28;20240;-81
2022/11/22 10:29:05;;;;;;;12.02;3.00;;;6.40;99.90;;;;;;5036696;28;20060;-81
2022/11/22 10:31:48;;;;;;;9.50;3.90;;;6.40;99.90;;;;;;5023491;28;20053;-80
2022/11/22 10:34:29;;;;;;;11.02;2.85;;;6.40;99.90;;;;;;5028161;28;20080;-81
2022/11/22 10:37:01;;;;;;;14.20;3.80;;;6.50;99.90;;;;;;5039624;28;20496;-82
2022/11/22 10:39:52;;;;;;;13.05;3.50;;;6.50;99.90;;;;;;5045264;28;20053;-85
2022/11/22 10:42:33;;;;;;;17.08;4.20;;;6.60;99.90;;;;;;5065581;28;20049;-81
2022/11/22 10:45:17;;;;;;;16.15;3.40;;;6.60;99.90;;;;;;5047847;28;20041;-80
2022/11/22 10:48:13;;;;;;;16.25;4.68;;;6.80;99.90;;;;;;5064134;28;20083;-80
2022/11/22 10:51:17;;;;;;;13.77;3.58;;;6.80;99.90;;;;;;5030980;28;20055;-82
2022/11/22 10:53:54;;;;;;;8.32;2.35;;;6.80;99.90;;;;;;5062386;28;20493;-80
2022/11/22 10:56:32;;;;;;;10.35;2.40;;;6.90;99.90;;;;;;5053704;28;20139;-81
2022/11/22 10:59:29;;;;;;;13.18;2.78;;;6.90;99.90;;;;;;5034530;28;20075;-82
2022/11/22 11:02:00;;;;;;;13.13;2.67;;;6.80;99.90;;;;;;5046332;28;20065;-84
2022/11/22 11:04:37;;;;;;;9.93;2.88;;;6.50;99.90;;;;;;5060493;28;20056;-81
2022/11/22 11:07:05;;;;;;;11.75;2.63;;;6.40;99.90;;;;;;5031199;28;20139;-81
2022/11/22 11:09:33;;;;;;;12.15;3.50;;;6.30;99.90;;;;;;5045174;28;20141;-85
2022/11/22 11:12:05;;;;;;;15.35;5.85;;;6.30;99.90;;;;;;5047907;28;20059;-81
2022/11/22 11:14:38;;;;;;;11.18;3.30;;;6.30;99.90;;;;;;5064994;28;20087;-81
2022/11/22 11:17:05;;;;;;;12.10;2.88;;;6.40;99.90;;;;;;5063970;28;20078;-80
2022/11/22 11:19:37;;;;;;;10.10;2.90;;;6.70;99.90;;;;;;5015707;28;20086;-81
2022/11/22 11:22:05;;;;;;;12.65;3.58;;;6.80;99.90;;;;;;5053507;28;20049;-81
2022/11/22 11:24:31;;;;;;;12.80;2.75;;;6.80;99.90;;;;;;5048293;28;20053;-81
2022/11/22 11:26:59;;;;;;;12.43;3.83;;;6.80;99.90;;;;;;5043625;28;20532;-80
2022/11/22 11:29:38;;;;;;;12.43;3.00;;;6.80;99.90;;;;;;5037339;28;20060;-81
2022/11/22 11:32:10;;;;;;;12.52;4.10;;;7.00;99.90;;;;;;5057177;28;20037;-78
2022/11/22 11:34:39;;;;;;;10.73;2.25;;;6.90;99.90;;;;;;5050226;28;20052;-84
2022/11/22 11:37:10;;;;;;;10.35;2.58;;;6.80;99.70;;;;;;5050249;28;20120;-80
2022/11/22 11:39:36;;;;;;;16.70;4.68;;;6.90;99.90;;;;;;5041591;28;20493;-85
2022/11/22 11:42:20;;;;;;;10.98;2.83;;;6.90;99.90;;;;;;5032412;28;20153;-81
2022/11/22 11:44:46;;;;;;;9.95;2.60;;;6.90;92.00;;;;;;5036661;28;20052;-81
2022/11/22 11:47:19;;;;;;;10.88;2.67;;;6.90;99.90;;;;;;5046736;28;20049;-81
2022/11/22 11:49:51;;;;;;;8.70;2.30;;;6.90;99.90;;;;;;5064477;28;20053;-81
2022/11/22 11:52:22;;;;;;;6.65;2.05;;;7.10;99.90;;;;;;5065011;28;20375;-83
2022/11/22 11:54:58;;;;;;;12.88;1.95;;;7.10;99.90;;;;;;4999851;28;20057;-81
2022/11/22 11:57:29;;;;;;;4.75;1.98;;;7.20;99.90;;;;;;5070551;28;20140;-80
2022/11/22 11:59:58;;;;;;;7.68;2.08;;;7.20;99.90;;;;;;5064986;28;20490;-81
2022/11/22 12:02:39;;;;;;;11.35;3.05;;;7.20;98.20;;;;;;5031818;28;20065;-81
2022/11/22 12:05:27;;;;;;;14.13;3.63;;;7.20;93.30;;;;;;5065364;28;20122;-80
2022/11/22 12:07:53;;;;;;;7.88;2.28;;;7.30;90.90;;;;;;5044113;28;21259;-80
2022/11/22 12:10:44;;;;;;;12.48;2.65;;;7.20;73.60;;;;;;5048796;28;20491;-79
2022/11/22 12:13:28;;;;;;;10.82;2.38;;;7.20;55.30;;;;;;5050416;28;20072;-79
2022/11/22 12:16:12;;;;;;;17.00;2.50;;;7.20;77.80;;;;;;5046231;28;20055;-79
2022/11/22 12:18:41;;;;;;;10.43;2.20;;;7.30;87.80;;;;;;5051745;28;20098;-83
2022/11/22 12:21:33;;;;;;;8.95;2.47;;;7.30;96.00;;;;;;5057490;28;20135;-78
2022/11/22 12:24:20;;;;;;;11.32;2.25;;;7.40;76.10;;;;;;5039420;28;20045;-80
2022/11/22 12:26:46;;;;;;;11.93;2.72;;;7.50;68.00;;;;;;5049499;28;20442;-78
2022/11/22 12:29:13;;;;;;;7.90;2.95;;;7.50;83.50;;;;;;5046984;28;20049;-81
2022/11/22 12:31:42;;;;;;;14.82;4.60;;;7.60;70.90;;;;;;5050880;28;20088;-82
2022/11/22 12:34:11;;;;;;;12.90;3.22;;;7.60;70.50;;;;;;5033727;28;20076;-82
2022/11/22 12:37:15;;;;;;;8.82;3.25;;;7.60;68.80;;;;;;5049853;28;20132;-80
2022/11/22 12:39:49;;;;;;;8.60;3.10;;;7.60;58.60;;;;;;4974091;28;20102;-83
2022/11/22 12:42:24;;;;;;;8.50;2.17;;;7.70;66.50;;;;;;5037147;28;20064;-81
2022/11/22 12:45:02;;;;;;;10.30;2.60;;;7.80;46.90;;;;;;5045758;28;20144;-82
2022/11/22 12:47:34;;;;;;;6.80;2.22;;;7.90;29.70;;;;;;5039693;28;20049;-82
2022/11/22 12:50:05;;;;;;;9.07;1.70;;;7.70;36.10;;;;;;5033573;28;20053;-81
2022/11/22 12:52:42;;;;;;;6.10;1.60;;;7.70;1.00;;;;;;5041000;28;20095;-81
2022/11/22 12:55:23;;;;;;;5.63;1.50;;;7.70;1.00;;;;;;5041519;28;20494;-83
2022/11/22 12:58:11;;;;;;;6.00;1.83;;;7.70;1.00;;;;;;5030370;28;20057;-81
2022/11/22 13:00:45;;;;;;;13.60;2.55;;;7.60;1.00;;;;;;5043854;28;20095;-82
2022/11/22 13:03:18;;;;;;;7.25;1.63;;;7.60;1.00;;;;;;5049305;28;20056;-81
2022/11/22 13:05:57;;;;;;;7.57;2.10;;;7.60;1.00;;;;;;5050528;28;20047;-81
2022/11/22 13:08:35;;;;;;;8.85;1.70;;;7.50;1.00;;;;;;5035542;28;20045;-81